createdAt,value
2019-05-11T00:00:22.968Z,0
2019-05-11T00:01:37.157Z,0
2019-05-11T00:02:51.507Z,0
2019-05-11T00:04:05.600Z,0
2019-05-11T00:05:19.825Z,0
2019-05-11T00:06:33.950Z,0
2019-05-11T00:07:48.116Z,0
2019-05-11T00:09:02.327Z,0
2019-05-11T00:10:17.629Z,0
2019-05-11T00:11:30.751Z,0
2019-05-11T00:12:45.021Z,0
2019-05-11T00:13:59.156Z,0
2019-05-11T00:15:13.392Z,0
2019-05-11T00:16:27.575Z,0
2019-05-11T00:17:41.828Z,0
2019-05-11T00:18:55.867Z,0
2019-05-11T00:20:10.220Z,0
2019-05-11T00:21:24.261Z,0
2019-05-11T00:23:52.726Z,0
2019-05-11T00:25:07.385Z,0
2019-05-11T00:26:21.210Z,0
2019-05-11T00:27:35.247Z,0
2019-05-11T00:28:49.529Z,0
2019-05-11T00:30:03.599Z,0
2019-05-11T00:32:32.026Z,0
2019-05-11T00:33:46.540Z,0
2019-05-11T00:35:00.437Z,0
2019-05-11T00:36:14.544Z,0
2019-05-11T00:37:28.772Z,0
2019-05-11T00:38:45.707Z,0
2019-05-11T00:39:57.415Z,0
2019-05-11T00:41:11.399Z,0
2019-05-11T00:42:25.497Z,0
2019-05-11T00:43:39.726Z,0
2019-05-11T00:44:53.896Z,0
2019-05-11T00:46:08.246Z,0
2019-05-11T00:47:22.365Z,0
2019-05-11T00:48:36.581Z,0
2019-05-11T00:49:50.744Z,0
2019-05-11T00:51:05.174Z,0
2019-05-11T00:52:19.064Z,0
2019-05-11T00:53:33.271Z,0
2019-05-11T00:54:47.429Z,0
2019-05-11T00:56:02.059Z,0
2019-05-11T00:57:15.921Z,0
2019-05-11T00:58:30.017Z,0
2019-05-11T00:59:44.525Z,0
2019-05-11T01:00:58.390Z,0
2019-05-11T01:02:12.598Z,0
2019-05-11T01:03:26.856Z,0
2019-05-11T01:04:41.013Z,0
2019-05-11T01:05:55.210Z,0
2019-05-11T01:07:09.328Z,0
2019-05-11T01:08:23.554Z,0
2019-05-11T01:09:37.847Z,0
2019-05-11T01:10:51.996Z,0
2019-05-11T01:12:06.118Z,0
2019-05-11T01:13:20.304Z,0
2019-05-11T01:14:34.620Z,0
2019-05-11T01:15:48.737Z,0
2019-05-11T01:17:02.906Z,0
2019-05-11T01:18:17.142Z,0
2019-05-11T01:19:31.231Z,0
2019-05-11T01:20:45.415Z,0
2019-05-11T01:21:59.614Z,0
2019-05-11T01:23:13.795Z,0
2019-05-11T01:24:27.973Z,0
2019-05-11T01:25:42.225Z,0
2019-05-11T01:26:56.932Z,0
2019-05-11T01:28:10.546Z,0
2019-05-11T01:29:24.731Z,0
2019-05-11T01:30:39.009Z,0
2019-05-11T01:31:53.368Z,0
2019-05-11T01:33:07.314Z,0
2019-05-11T01:34:21.559Z,0
2019-05-11T01:35:35.698Z,0
2019-05-11T01:36:49.866Z,0
2019-05-11T01:38:04.056Z,0
2019-05-11T01:39:18.354Z,0
2019-05-11T01:41:46.593Z,0
2019-05-11T01:43:01.021Z,0
2019-05-11T01:44:14.999Z,0
2019-05-11T01:45:29.184Z,0
2019-05-11T01:46:43.405Z,0
2019-05-11T01:47:57.557Z,0
2019-05-11T01:49:11.829Z,0
2019-05-11T01:50:25.945Z,0
2019-05-11T01:51:40.174Z,0
2019-05-11T01:52:54.321Z,0
2019-05-11T01:54:08.510Z,0
2019-05-11T01:55:22.791Z,0
2019-05-11T01:56:36.949Z,0
2019-05-11T01:57:51.105Z,0
2019-05-11T01:59:05.330Z,0
2019-05-11T02:00:19.599Z,0
2019-05-11T02:01:33.769Z,0
2019-05-11T02:02:47.968Z,0
2019-05-11T02:04:02.216Z,0
2019-05-11T02:05:16.236Z,0
2019-05-11T02:06:30.443Z,0
2019-05-11T02:07:44.647Z,0
2019-05-11T02:08:58.925Z,0
2019-05-11T02:10:13.031Z,0
2019-05-11T02:11:29.777Z,0
2019-05-11T02:12:43.395Z,0
2019-05-11T02:13:55.565Z,0
2019-05-11T02:15:09.946Z,0
2019-05-11T02:16:24.205Z,0
2019-05-11T02:17:38.774Z,0
2019-05-11T02:18:52.365Z,0
2019-05-11T02:20:06.595Z,0
2019-05-11T02:21:20.754Z,0
2019-05-11T02:22:34.942Z,0
2019-05-11T02:23:49.176Z,0
2019-05-11T02:25:03.333Z,0
2019-05-11T02:26:17.491Z,0
2019-05-11T02:27:31.696Z,0
2019-05-11T02:28:45.881Z,0
2019-05-11T02:30:00.107Z,0
2019-05-11T02:31:14.364Z,0
2019-05-11T02:32:28.455Z,0
2019-05-11T02:33:42.698Z,0
2019-05-11T02:34:56.937Z,0
2019-05-11T02:36:11.278Z,0
2019-05-11T02:37:25.257Z,0
2019-05-11T02:38:39.442Z,0
2019-05-11T02:39:54.583Z,0
2019-05-11T02:41:07.907Z,0
2019-05-11T02:42:22.112Z,0
2019-05-11T02:43:36.360Z,0
2019-05-11T02:44:50.540Z,0
2019-05-11T02:46:04.942Z,0
2019-05-11T02:47:18.840Z,0
2019-05-11T02:48:33.014Z,0
2019-05-11T02:49:47.393Z,0
2019-05-11T02:51:01.431Z,0
2019-05-11T02:52:15.563Z,0
2019-05-11T02:53:29.957Z,0
2019-05-11T02:54:43.956Z,0
2019-05-11T02:55:58.183Z,0
2019-05-11T02:57:12.327Z,0
2019-05-11T02:58:26.480Z,0
2019-05-11T02:59:40.714Z,0
2019-05-11T03:00:55.035Z,0
2019-05-11T03:02:09.051Z,0
2019-05-11T03:03:23.297Z,0
2019-05-11T03:04:37.577Z,0
2019-05-11T03:05:51.732Z,0
2019-05-11T03:07:05.823Z,0
2019-05-11T03:09:34.169Z,0
2019-05-11T03:10:48.362Z,4
2019-05-11T03:12:02.565Z,4
2019-05-11T03:13:16.751Z,0
2019-05-11T03:14:30.919Z,4
2019-05-11T03:15:45.128Z,4
2019-05-11T03:16:59.314Z,4
2019-05-11T03:18:13.496Z,8
2019-05-11T03:19:27.869Z,8
2019-05-11T03:20:41.883Z,8
2019-05-11T03:21:56.090Z,8
2019-05-11T03:23:10.273Z,8
2019-05-11T03:24:24.526Z,12
2019-05-11T03:25:38.704Z,12
2019-05-11T03:26:52.929Z,20
2019-05-11T03:28:07.045Z,24
2019-05-11T03:29:21.620Z,24
2019-05-11T03:31:49.621Z,40
2019-05-11T03:33:04.463Z,48
2019-05-11T03:34:17.989Z,56
2019-05-11T03:35:32.257Z,68
2019-05-11T03:36:46.383Z,76
2019-05-11T03:38:00.601Z,88
2019-05-11T03:39:14.760Z,96
2019-05-11T03:40:29.189Z,108
2019-05-11T03:41:43.161Z,124
2019-05-11T03:42:57.328Z,148
2019-05-11T03:44:11.509Z,160
2019-05-11T03:45:25.733Z,164
2019-05-11T03:46:39.948Z,176
2019-05-11T03:47:54.084Z,192
2019-05-11T03:50:22.475Z,248
2019-05-11T03:51:36.709Z,280
2019-05-11T03:52:50.953Z,320
2019-05-11T03:54:05.039Z,364
2019-05-11T03:55:19.302Z,408
2019-05-11T03:56:33.441Z,432
2019-05-11T03:57:47.611Z,460
2019-05-11T03:59:01.924Z,476
2019-05-11T04:00:16.104Z,492
2019-05-11T04:01:30.302Z,508
2019-05-11T04:02:44.489Z,532
2019-05-11T04:03:58.709Z,552
2019-05-11T04:05:12.822Z,568
2019-05-11T04:06:27.014Z,576
2019-05-11T04:07:41.265Z,588
2019-05-11T04:08:55.403Z,608
2019-05-11T04:10:09.628Z,652
2019-05-11T04:11:23.813Z,712
2019-05-11T04:12:38.031Z,800
2019-05-11T04:13:52.342Z,900
2019-05-11T04:15:06.361Z,1024
2019-05-11T04:16:20.529Z,1140
2019-05-11T04:17:34.727Z,1260
2019-05-11T04:18:48.930Z,1372
2019-05-11T04:20:03.366Z,1484
2019-05-11T04:21:17.323Z,1612
2019-05-11T04:22:31.474Z,1744
2019-05-11T04:23:45.693Z,1844
2019-05-11T04:24:59.890Z,1908
2019-05-11T04:27:28.216Z,2016
2019-05-11T04:28:42.410Z,2068
2019-05-11T04:29:56.678Z,2108
2019-05-11T04:31:10.859Z,2092
2019-05-11T04:32:25.001Z,2072
2019-05-11T04:33:39.153Z,2108
2019-05-11T04:34:53.425Z,2208
2019-05-11T04:36:07.567Z,2384
2019-05-11T04:37:21.742Z,2600
2019-05-11T04:39:50.118Z,3004
2019-05-11T04:41:04.261Z,3152
2019-05-11T04:42:18.480Z,3284
2019-05-11T04:43:32.643Z,3404
2019-05-11T04:44:46.902Z,3536
2019-05-11T04:46:01.065Z,3640
2019-05-11T04:47:15.246Z,3732
2019-05-11T04:48:29.435Z,3776
2019-05-11T04:49:43.583Z,3768
2019-05-11T04:50:57.793Z,3720
2019-05-11T04:53:26.142Z,3672
2019-05-11T04:54:40.386Z,3832
2019-05-11T04:55:54.522Z,4068
2019-05-11T04:57:08.719Z,4324
2019-05-11T04:58:22.945Z,4572
2019-05-11T04:59:37.149Z,4800
2019-05-11T05:00:51.286Z,4952
2019-05-11T05:02:05.465Z,5052
2019-05-11T05:03:19.637Z,5116
2019-05-11T05:04:33.876Z,5196
2019-05-11T05:05:48.071Z,5360
2019-05-11T05:07:02.191Z,5532
2019-05-11T05:08:16.364Z,5660
2019-05-11T05:09:30.625Z,5788
2019-05-11T05:10:44.868Z,5908
2019-05-11T05:11:58.902Z,6044
2019-05-11T05:13:13.087Z,6256
2019-05-11T05:14:27.282Z,6452
2019-05-11T05:15:41.465Z,6656
2019-05-11T05:16:55.646Z,6792
2019-05-11T05:18:09.946Z,6968
2019-05-11T05:19:23.998Z,7156
2019-05-11T05:20:38.418Z,7352
2019-05-11T05:21:52.468Z,7540
2019-05-11T05:23:06.747Z,7724
2019-05-11T05:24:21.500Z,7976
2019-05-11T05:25:35.846Z,8128
2019-05-11T05:26:49.063Z,8200
2019-05-11T05:28:03.333Z,8180
2019-05-11T05:29:22.717Z,8116
2019-05-11T05:30:36.634Z,8092
2019-05-11T05:31:45.750Z,8120
2019-05-11T05:32:59.917Z,8340
2019-05-11T05:34:14.085Z,8672
2019-05-11T05:35:28.384Z,9164
2019-05-11T05:36:42.423Z,9748
2019-05-11T05:37:56.647Z,10280
2019-05-11T05:39:10.767Z,10944
2019-05-11T05:41:39.119Z,12160
2019-05-11T05:42:53.260Z,13200
2019-05-11T05:44:07.440Z,14028
2019-05-11T05:45:21.826Z,14364
2019-05-11T05:46:35.760Z,14400
2019-05-11T05:47:49.946Z,14356
2019-05-11T05:49:04.090Z,13988
2019-05-11T05:50:18.279Z,13520
2019-05-11T05:54:00.829Z,11788
2019-05-11T05:55:14.929Z,11492
2019-05-11T05:56:29.058Z,11224
2019-05-11T05:57:43.257Z,11068
2019-05-11T05:58:57.394Z,11304
2019-05-11T06:00:11.626Z,11556
2019-05-11T06:01:25.877Z,11980
2019-05-11T06:02:39.916Z,12328
2019-05-11T06:03:54.052Z,12584
2019-05-11T06:07:36.552Z,13004
2019-05-11T06:08:50.649Z,13008
2019-05-11T06:10:04.961Z,13024
2019-05-11T06:11:18.943Z,13128
2019-05-11T06:12:33.191Z,13304
2019-05-11T06:13:47.280Z,13644
2019-05-11T06:15:01.794Z,14076
2019-05-11T06:16:15.584Z,14700
2019-05-11T06:17:29.734Z,15220
2019-05-11T06:18:44.103Z,15632
2019-05-11T06:19:58.038Z,15640
2019-05-11T06:21:12.195Z,15424
2019-05-11T06:22:26.440Z,15720
2019-05-11T06:23:40.500Z,15856
2019-05-11T06:24:54.704Z,16120
2019-05-11T06:26:09.012Z,16088
2019-05-11T06:27:23.983Z,15872
2019-05-11T06:29:51.305Z,15888
2019-05-11T06:31:05.473Z,15460
2019-05-11T06:32:19.571Z,15084
2019-05-11T06:33:33.812Z,14772
2019-05-11T06:34:47.855Z,14160
2019-05-11T06:36:02.097Z,13620
2019-05-11T06:37:16.386Z,12988
2019-05-11T06:38:30.318Z,12564
2019-05-11T06:39:44.538Z,12080
2019-05-11T06:40:58.628Z,11788
2019-05-11T06:42:12.765Z,11476
2019-05-11T06:43:26.970Z,11408
2019-05-11T06:44:41.093Z,11472
2019-05-11T06:45:55.413Z,11696
2019-05-11T06:47:09.386Z,11916
2019-05-11T06:48:23.633Z,12116
2019-05-11T06:49:37.781Z,12032
2019-05-11T06:50:51.911Z,12120
2019-05-11T06:52:06.094Z,12136
2019-05-11T06:53:20.233Z,12404
2019-05-11T06:55:48.502Z,12724
2019-05-11T06:57:02.916Z,13184
2019-05-11T06:58:16.915Z,14236
2019-05-11T06:59:30.983Z,15828
2019-05-11T07:00:45.125Z,16684
2019-05-11T07:01:59.279Z,16732
2019-05-11T07:03:13.440Z,17760
2019-05-11T07:04:27.590Z,18432
2019-05-11T07:05:41.750Z,20064
2019-05-11T07:08:10.103Z,23840
2019-05-11T07:09:24.357Z,28480
2019-05-11T07:10:41.786Z,36000
2019-05-11T07:11:52.582Z,28192
2019-05-11T07:13:06.777Z,26656
2019-05-11T07:14:20.782Z,27104
2019-05-11T07:15:34.895Z,27200
2019-05-11T07:16:49.047Z,27904
2019-05-11T07:18:03.165Z,28864
2019-05-11T07:19:17.310Z,26080
2019-05-11T07:20:31.646Z,25280
2019-05-11T07:21:45.711Z,25632
2019-05-11T07:22:59.679Z,25280
2019-05-11T07:24:13.810Z,28736
2019-05-11T07:25:27.933Z,29664
2019-05-11T07:26:42.113Z,28320
2019-05-11T07:27:56.337Z,25632
2019-05-11T07:29:10.330Z,24512
2019-05-11T07:30:24.439Z,26080
2019-05-11T07:31:38.535Z,20320
2019-05-11T07:32:52.837Z,20768
2019-05-11T07:34:07.021Z,23744
2019-05-11T07:35:21.046Z,24704
2019-05-11T07:36:35.070Z,24640
2019-05-11T07:37:49.157Z,27520
2019-05-11T07:39:03.371Z,32032
2019-05-11T07:40:17.846Z,37088
2019-05-11T07:41:31.569Z,35296
2019-05-11T07:42:45.707Z,33344
2019-05-11T07:45:13.981Z,35296
2019-05-11T07:46:28.040Z,32608
2019-05-11T07:47:42.117Z,32224
2019-05-11T07:48:56.296Z,33472
2019-05-11T07:50:10.321Z,32512
2019-05-11T07:51:24.659Z,32000
2019-05-11T07:52:38.628Z,30016
2019-05-11T07:53:52.655Z,29312
2019-05-11T07:55:07.027Z,34112
2019-05-11T07:56:20.876Z,37344
2019-05-11T07:57:35.828Z,39488
2019-05-11T07:58:49.331Z,39584
2019-05-11T08:00:03.211Z,42144
2019-05-11T08:01:17.300Z,43040
2019-05-11T08:02:31.476Z,41184
2019-05-11T08:03:45.579Z,40320
2019-05-11T08:06:13.706Z,35456
2019-05-11T08:07:27.829Z,37600
2019-05-11T08:08:42.323Z,41664
2019-05-11T08:09:56.078Z,30816
2019-05-11T08:11:10.119Z,28544
2019-05-11T08:12:24.239Z,37632
2019-05-11T08:13:38.323Z,42720
2019-05-11T08:14:52.520Z,43712
2019-05-11T08:16:07.012Z,39232
2019-05-11T08:17:20.673Z,31392
2019-05-11T08:18:34.750Z,37248
2019-05-11T08:19:48.834Z,42400
2019-05-11T08:21:02.961Z,35008
2019-05-11T08:22:17.067Z,34272
2019-05-11T08:23:31.153Z,35040
2019-05-11T08:24:45.517Z,36032
2019-05-11T08:25:59.395Z,35296
2019-05-11T08:27:13.494Z,44480
2019-05-11T08:28:27.727Z,40032
2019-05-11T08:29:41.734Z,33792
2019-05-11T08:30:56.015Z,33728
2019-05-11T08:32:10.062Z,38016
2019-05-11T08:33:24.196Z,38464
2019-05-11T08:34:38.412Z,37888
2019-05-11T08:35:52.411Z,35936
2019-05-11T08:37:06.699Z,38432
2019-05-11T08:38:20.597Z,37120
2019-05-11T08:39:34.701Z,35488
2019-05-11T08:40:48.827Z,37376
2019-05-11T08:42:03.080Z,36480
2019-05-11T08:43:17.086Z,37664
2019-05-11T08:44:31.158Z,38144
2019-05-11T08:45:45.268Z,41152
2019-05-11T08:46:59.446Z,39680
2019-05-11T08:48:13.504Z,39296
2019-05-11T08:49:29.068Z,38976
2019-05-11T08:50:41.791Z,35008
2019-05-11T08:51:55.863Z,37472
2019-05-11T08:53:10.247Z,44928
2019-05-11T08:54:24.082Z,43456
2019-05-11T08:55:38.293Z,41376
2019-05-11T08:59:20.543Z,40096
2019-05-11T09:00:34.746Z,33824
2019-05-11T09:01:48.884Z,32416
2019-05-11T09:03:02.963Z,33280
2019-05-11T09:04:17.136Z,35360
2019-05-11T09:05:31.169Z,30784
2019-05-11T09:06:45.317Z,28576
2019-05-11T09:07:59.433Z,28352
2019-05-11T09:09:13.567Z,28608
2019-05-11T09:10:27.749Z,28608
2019-05-11T09:11:41.816Z,30752
2019-05-11T09:12:55.940Z,32704
2019-05-11T09:14:10.259Z,35872
2019-05-11T09:15:24.884Z,34336
2019-05-11T09:16:38.478Z,38688
2019-05-11T09:17:52.473Z,43264
2019-05-11T09:19:07.022Z,43360
2019-05-11T09:20:20.769Z,44480
2019-05-11T09:21:34.875Z,47840
2019-05-11T09:24:03.127Z,47296
2019-05-11T09:25:17.278Z,46080
2019-05-11T09:26:31.476Z,46752
2019-05-11T09:27:45.516Z,49952
2019-05-11T09:28:59.618Z,52288
2019-05-11T09:30:13.862Z,52800
2019-05-11T09:31:27.870Z,49536
2019-05-11T09:32:43.606Z,47104
2019-05-11T09:33:56.103Z,43392
2019-05-11T09:35:10.271Z,43200
2019-05-11T09:36:24.407Z,42848
2019-05-11T09:37:38.479Z,39648
2019-05-11T09:38:52.670Z,36960
2019-05-11T09:40:06.970Z,35200
2019-05-11T09:42:35.269Z,40544
2019-05-11T09:43:49.559Z,39936
2019-05-11T09:45:03.215Z,33024
2019-05-11T09:46:17.738Z,30240
2019-05-11T09:47:31.457Z,28832
2019-05-11T09:48:45.725Z,32064
2019-05-11T09:49:59.713Z,34208
2019-05-11T09:51:13.883Z,34272
2019-05-11T09:52:28.084Z,36448
2019-05-11T09:53:42.095Z,36736
2019-05-11T09:54:56.206Z,40064
2019-05-11T09:56:10.328Z,47328
2019-05-11T09:57:24.564Z,41760
2019-05-11T09:58:38.913Z,39776
2019-05-11T09:59:52.834Z,33696
2019-05-11T10:01:07.025Z,32096
2019-05-11T10:02:20.975Z,37056
2019-05-11T10:04:49.246Z,44960
2019-05-11T10:06:03.352Z,44416
2019-05-11T10:07:17.483Z,47104
2019-05-11T10:08:31.608Z,52384
2019-05-11T10:09:45.760Z,46624
2019-05-11T10:10:59.960Z,41888
2019-05-11T10:12:14.000Z,37504
2019-05-11T10:13:28.134Z,43008
2019-05-11T10:14:42.225Z,42112
2019-05-11T10:15:56.414Z,41760
2019-05-11T10:17:10.498Z,38624
2019-05-11T10:18:24.577Z,27520
2019-05-11T10:20:52.829Z,31680
2019-05-11T10:22:06.957Z,35008
2019-05-11T10:23:21.166Z,39296
2019-05-11T10:24:35.163Z,32416
2019-05-11T10:25:49.417Z,36992
2019-05-11T10:27:03.519Z,42240
2019-05-11T10:28:17.531Z,58400
2019-05-11T10:29:31.712Z,49856
2019-05-11T10:30:46.006Z,74240
2019-05-11T10:31:59.964Z,42624
2019-05-11T10:33:14.000Z,42496
2019-05-11T10:34:28.237Z,49664
2019-05-11T10:35:42.248Z,41504
2019-05-11T10:38:10.464Z,32544
2019-05-11T10:39:24.705Z,34688
2019-05-11T10:40:38.860Z,36640
2019-05-11T10:41:52.971Z,41504
2019-05-11T10:43:07.121Z,50144
2019-05-11T10:44:21.059Z,46912
2019-05-11T10:45:35.170Z,43392
2019-05-11T10:46:49.534Z,49088
2019-05-11T10:48:03.437Z,56864
2019-05-11T10:49:17.548Z,62432
2019-05-11T10:50:31.620Z,46112
2019-05-11T10:51:45.747Z,45376
2019-05-11T10:52:59.919Z,43168
2019-05-11T10:54:13.984Z,47072
2019-05-11T10:55:28.197Z,54080
2019-05-11T10:56:42.234Z,47680
2019-05-11T10:57:56.394Z,47680
2019-05-11T10:59:10.427Z,60384
2019-05-11T11:00:24.790Z,56896
2019-05-11T11:01:38.733Z,64288
2019-05-11T11:02:52.807Z,77088
2019-05-11T11:04:06.850Z,60480
2019-05-11T11:05:20.949Z,48864
2019-05-11T11:06:35.049Z,39872
2019-05-11T11:07:49.193Z,39712
2019-05-11T11:09:03.365Z,36576
2019-05-11T11:10:17.453Z,36960
2019-05-11T11:11:31.448Z,32768
2019-05-11T11:12:45.936Z,30784
2019-05-11T11:13:59.696Z,30432
2019-05-11T11:15:13.853Z,30208
2019-05-11T11:16:27.920Z,30112
2019-05-11T11:17:42.052Z,29920
2019-05-11T11:18:56.164Z,28416
2019-05-11T11:20:10.313Z,26144
2019-05-11T11:21:24.580Z,24320
2019-05-11T11:22:38.673Z,22592
2019-05-11T11:23:52.748Z,21568
2019-05-11T11:25:06.933Z,20608
2019-05-11T11:27:35.118Z,18400
2019-05-11T11:28:49.311Z,18176
2019-05-11T11:30:03.381Z,17696
2019-05-11T11:31:17.645Z,18048
2019-05-11T11:32:31.738Z,19264
2019-05-11T11:33:51.593Z,20448
2019-05-11T11:34:59.997Z,21952
2019-05-11T11:36:14.116Z,24320
2019-05-11T11:37:28.231Z,25312
2019-05-11T11:38:42.388Z,24992
2019-05-11T11:39:57.748Z,24416
2019-05-11T11:41:10.679Z,26304
2019-05-11T11:42:30.586Z,29632
2019-05-11T11:43:44.287Z,31712
2019-05-11T11:44:53.123Z,35200
2019-05-11T11:46:07.249Z,41824
2019-05-11T11:47:24.363Z,47648
2019-05-11T11:48:35.633Z,50464
2019-05-11T11:49:49.640Z,52448
2019-05-11T11:51:04.272Z,54560
2019-05-11T11:52:18.532Z,54592
2019-05-11T11:53:32.029Z,66848
2019-05-11T11:54:46.291Z,58688
2019-05-11T11:56:00.670Z,61600
2019-05-11T11:57:14.397Z,52576
2019-05-11T11:58:28.432Z,46912
2019-05-11T11:59:42.699Z,49088
2019-05-11T12:00:56.660Z,52064
2019-05-11T12:02:10.817Z,58304
2019-05-11T12:04:38.970Z,62400
2019-05-11T12:05:53.128Z,53344
2019-05-11T12:07:07.261Z,45248
2019-05-11T12:08:21.245Z,41024
2019-05-11T12:09:35.369Z,39808
2019-05-11T12:10:49.477Z,40384
2019-05-11T12:12:03.568Z,41344
2019-05-11T12:13:17.691Z,41792
2019-05-11T12:14:31.834Z,42336
2019-05-11T12:15:45.890Z,44448
2019-05-11T12:16:59.962Z,44000
2019-05-11T12:18:14.055Z,43008
2019-05-11T12:19:28.215Z,40064
2019-05-11T12:20:42.293Z,36384
2019-05-11T12:21:56.497Z,35776
2019-05-11T12:23:10.495Z,41376
2019-05-11T12:24:24.656Z,80832
2019-05-11T12:25:38.735Z,91424
2019-05-11T12:26:52.809Z,80896
2019-05-11T12:28:07.024Z,80096
2019-05-11T12:29:20.976Z,127936
2019-05-11T12:30:35.206Z,130880
2019-05-11T12:31:49.191Z,106080
2019-05-11T12:33:03.243Z,52096
2019-05-11T12:34:17.461Z,47168
2019-05-11T12:35:36.166Z,43168
2019-05-11T12:36:45.620Z,41952
2019-05-11T12:37:59.494Z,45536
2019-05-11T12:39:13.608Z,46784
2019-05-11T12:40:28.750Z,51104
2019-05-11T12:41:41.794Z,48608
2019-05-11T12:42:55.887Z,46816
2019-05-11T12:44:10.013Z,71008
2019-05-11T12:45:24.087Z,81088
2019-05-11T12:46:38.177Z,54048
2019-05-11T12:47:52.274Z,50336
2019-05-11T12:49:06.548Z,42944
2019-05-11T12:50:20.459Z,48832
2019-05-11T12:51:34.659Z,110368
2019-05-11T12:52:48.672Z,109120
2019-05-11T12:54:02.846Z,86944
2019-05-11T12:55:16.873Z,62912
2019-05-11T12:56:30.934Z,56768
2019-05-11T12:57:45.087Z,50656
2019-05-11T12:58:59.168Z,47648
2019-05-11T13:00:13.237Z,46784
2019-05-11T13:01:27.391Z,49376
2019-05-11T13:02:41.401Z,47776
2019-05-11T13:03:55.524Z,47776
2019-05-11T13:05:09.652Z,53728
2019-05-11T13:06:23.714Z,87936
2019-05-11T13:07:37.909Z,83328
2019-05-11T13:08:51.921Z,67008
2019-05-11T13:10:06.056Z,59424
2019-05-11T13:11:20.280Z,42752
2019-05-11T13:12:35.673Z,37248
2019-05-11T13:13:48.509Z,37472
2019-05-11T13:15:02.374Z,51200
2019-05-11T13:16:16.645Z,60736
2019-05-11T13:17:30.556Z,118752
2019-05-11T13:18:44.760Z,58848
2019-05-11T13:19:58.708Z,53728
2019-05-11T13:21:12.817Z,57088
2019-05-11T13:22:26.884Z,29472
2019-05-11T13:23:41.051Z,29056
2019-05-11T13:24:55.155Z,29984
2019-05-11T13:26:09.199Z,32192
2019-05-11T13:27:23.317Z,34528
2019-05-11T13:28:37.387Z,36704
2019-05-11T13:31:05.626Z,36128
2019-05-11T13:32:19.708Z,115104
2019-05-11T13:33:33.811Z,96032
2019-05-11T13:34:47.929Z,75776
2019-05-11T13:36:02.097Z,112672
2019-05-11T13:37:16.147Z,125248
2019-05-11T13:38:30.304Z,124864
2019-05-11T13:39:44.472Z,120672
2019-05-11T13:40:58.391Z,112096
2019-05-11T13:42:12.578Z,113600
2019-05-11T13:43:26.627Z,110752
2019-05-11T13:44:40.708Z,113920
2019-05-11T13:45:54.748Z,115200
2019-05-11T13:47:08.745Z,120416
2019-05-11T13:48:22.938Z,118816
2019-05-11T13:49:36.937Z,80192
2019-05-11T13:50:50.917Z,111072
2019-05-11T13:52:05.003Z,91808
2019-05-11T13:53:19.131Z,76480
2019-05-11T13:54:33.103Z,27840
2019-05-11T13:55:51.343Z,33056
2019-05-11T13:57:01.235Z,102240
2019-05-11T13:58:15.367Z,119616
2019-05-11T13:59:29.421Z,116736
2019-05-11T14:00:43.526Z,111456
2019-05-11T14:01:57.664Z,98144
2019-05-11T14:03:11.677Z,35968
2019-05-11T14:04:25.665Z,29216
2019-05-11T14:05:39.820Z,26944
2019-05-11T14:08:07.960Z,23424
2019-05-11T14:09:22.053Z,22112
2019-05-11T14:10:38.167Z,20992
2019-05-11T14:11:50.269Z,21792
2019-05-11T14:13:04.377Z,24064
2019-05-11T14:14:23.594Z,27744
2019-05-11T14:15:32.509Z,44256
2019-05-11T14:16:46.686Z,38272
2019-05-11T14:18:00.806Z,38656
2019-05-11T14:19:14.803Z,72960
2019-05-11T14:20:28.906Z,45344
2019-05-11T14:21:43.027Z,105952
2019-05-11T14:22:57.197Z,112672
2019-05-11T14:24:11.298Z,109120
2019-05-11T14:25:25.377Z,32128
2019-05-11T14:26:39.505Z,23136
2019-05-11T14:27:53.782Z,18976
2019-05-11T14:29:07.675Z,17504
2019-05-11T14:30:22.044Z,18400
2019-05-11T14:31:36.892Z,21600
2019-05-11T14:32:50.062Z,90816
2019-05-11T14:34:04.133Z,67648
2019-05-11T14:35:21.612Z,22368
2019-05-11T14:36:32.315Z,19616
2019-05-11T14:37:46.428Z,18048
2019-05-11T14:40:14.715Z,16456
2019-05-11T14:41:28.784Z,17392
2019-05-11T14:42:42.900Z,20256
2019-05-11T14:43:57.035Z,29984
2019-05-11T14:45:11.347Z,102240
2019-05-11T14:46:25.306Z,97600
2019-05-11T14:47:39.406Z,85408
2019-05-11T14:48:53.526Z,23296
2019-05-11T14:50:07.719Z,21824
2019-05-11T14:51:21.814Z,25952
2019-05-11T14:52:35.867Z,99552
2019-05-11T14:53:49.956Z,97568
2019-05-11T14:55:04.161Z,95360
2019-05-11T14:57:32.245Z,99808
2019-05-11T14:58:46.377Z,109312
2019-05-11T15:01:14.667Z,41568
2019-05-11T15:02:28.728Z,24672
2019-05-11T15:03:42.676Z,23008
2019-05-11T15:04:56.826Z,23712
2019-05-11T15:06:10.948Z,48064
2019-05-11T15:07:24.942Z,79552
2019-05-11T15:08:39.147Z,88416
2019-05-11T15:09:53.564Z,89184
2019-05-11T15:11:07.256Z,86624
2019-05-11T15:12:21.422Z,88320
2019-05-11T15:13:35.446Z,92640
2019-05-11T15:14:49.552Z,94080
2019-05-11T15:16:03.636Z,18336
2019-05-11T15:17:17.812Z,16672
2019-05-11T15:18:31.825Z,16496
2019-05-11T15:19:45.882Z,18400
2019-05-11T15:22:14.218Z,93376
2019-05-11T15:23:28.245Z,89856
2019-05-11T15:24:42.304Z,88224
2019-05-11T15:25:56.431Z,90240
2019-05-11T15:27:10.576Z,89312
2019-05-11T15:28:24.579Z,89888
2019-05-11T15:29:38.642Z,93312
2019-05-11T15:30:52.849Z,94240
2019-05-11T15:32:08.841Z,96448
2019-05-11T15:33:21.050Z,95136
2019-05-11T15:34:34.956Z,96224
2019-05-11T15:35:51.987Z,94304
2019-05-11T15:37:05.585Z,80608
2019-05-11T15:38:20.677Z,89376
2019-05-11T15:39:31.336Z,85120
2019-05-11T15:40:45.404Z,25920
2019-05-11T15:41:59.900Z,79136
2019-05-11T15:43:13.574Z,59904
2019-05-11T15:44:27.606Z,13200
2019-05-11T15:45:41.753Z,12336
2019-05-11T15:46:55.930Z,26016
2019-05-11T15:48:09.870Z,14276
2019-05-11T15:49:23.970Z,34752
2019-05-11T15:50:38.228Z,30400
2019-05-11T15:51:52.280Z,29152
2019-05-11T15:53:06.367Z,28480
2019-05-11T15:54:20.389Z,28928
2019-05-11T15:55:34.563Z,30016
2019-05-11T15:56:48.635Z,30848
2019-05-11T15:58:02.667Z,32288
2019-05-11T15:59:16.833Z,34656
2019-05-11T16:00:30.839Z,31232
2019-05-11T16:01:44.964Z,18784
2019-05-11T16:02:59.041Z,29984
2019-05-11T16:04:13.201Z,17792
2019-05-11T16:05:27.217Z,31872
2019-05-11T16:06:41.971Z,19776
2019-05-11T16:07:55.401Z,17440
2019-05-11T16:09:09.711Z,18592
2019-05-11T16:11:37.833Z,24672
2019-05-11T16:12:51.842Z,13928
2019-05-11T16:14:05.962Z,13680
2019-05-11T16:15:20.581Z,26784
2019-05-11T16:16:36.417Z,12972
2019-05-11T16:17:48.337Z,10984
2019-05-11T16:19:02.446Z,11124
2019-05-11T16:20:16.557Z,9900
2019-05-11T16:21:30.880Z,25152
2019-05-11T16:22:45.061Z,28032
2019-05-11T16:23:58.953Z,32544
2019-05-11T16:25:13.082Z,47008
2019-05-11T16:26:27.248Z,63904
2019-05-11T16:27:41.363Z,68640
2019-05-11T16:30:09.743Z,67040
2019-05-11T16:31:23.742Z,51040
2019-05-11T16:32:37.865Z,44064
2019-05-11T16:33:52.043Z,43104
2019-05-11T16:35:06.136Z,52896
2019-05-11T16:36:20.342Z,50880
2019-05-11T16:37:34.697Z,53888
2019-05-11T16:38:48.565Z,55968
2019-05-11T16:40:02.692Z,18496
2019-05-11T16:41:20.870Z,31712
2019-05-11T16:42:30.753Z,17760
2019-05-11T16:44:58.981Z,36672
2019-05-11T16:46:13.122Z,20768
2019-05-11T16:47:27.239Z,16632
2019-05-11T16:48:41.542Z,37120
2019-05-11T16:49:55.495Z,19296
2019-05-11T16:51:09.704Z,12328
2019-05-11T16:52:23.733Z,11552
2019-05-11T16:53:39.306Z,12948
2019-05-11T16:54:52.033Z,28544
2019-05-11T16:56:06.142Z,33216
2019-05-11T16:57:20.263Z,34496
2019-05-11T16:58:34.390Z,19616
2019-05-11T16:59:48.551Z,28768
2019-05-11T17:01:02.674Z,32096
2019-05-11T17:02:16.806Z,13048
2019-05-11T17:03:31.022Z,12300
2019-05-11T17:04:45.133Z,14924
2019-05-11T17:05:59.182Z,28864
2019-05-11T17:07:13.311Z,29184
2019-05-11T17:08:27.463Z,25120
2019-05-11T17:10:55.687Z,21152
2019-05-11T17:12:09.809Z,29024